createdAt,value
2018-07-27T00:01:46.899Z,46.98
2018-07-27T00:03:51.683Z,47.55
2018-07-27T00:05:56.690Z,46.98
2018-07-27T00:08:01.514Z,47.15
2018-07-27T00:10:06.998Z,47.98
2018-07-27T00:12:11.778Z,48.01
2018-07-27T00:14:16.822Z,48.23
2018-07-27T00:16:21.508Z,47.46
2018-07-27T00:18:26.358Z,47.27
2018-07-27T00:20:31.296Z,48.07
2018-07-27T00:22:36.202Z,47.54
2018-07-27T00:24:40.999Z,47.75
2018-07-27T00:26:45.742Z,47.89
2018-07-27T00:28:50.508Z,48.12
2018-07-27T00:30:55.239Z,47.36
2018-07-27T00:32:59.960Z,47.48
2018-07-27T00:35:04.822Z,46.59
2018-07-27T00:39:12.817Z,46.16
2018-07-27T00:41:17.501Z,46.29
2018-07-27T00:43:22.343Z,45.70
2018-07-27T00:45:27.227Z,46.23
2018-07-27T00:47:31.573Z,46.43
2018-07-27T00:49:36.243Z,46.74
2018-07-27T00:51:41.183Z,46.75
2018-07-27T00:53:45.581Z,47.13
2018-07-27T00:55:52.471Z,47.63
2018-07-27T00:57:56.974Z,48.48
2018-07-27T01:00:01.715Z,48.38
2018-07-27T01:02:06.461Z,48.31
2018-07-27T01:04:11.351Z,48.68
2018-07-27T01:06:16.199Z,47.74
2018-07-27T01:08:21.002Z,47.81
2018-07-27T01:10:25.974Z,47.68
2018-07-27T01:12:30.665Z,48.74
2018-07-27T01:14:35.166Z,48.34
2018-07-27T01:16:39.962Z,49.09
2018-07-27T01:18:44.625Z,47.43
2018-07-27T01:20:49.304Z,48.53
2018-07-27T01:22:54.024Z,48.63
2018-07-27T01:24:58.758Z,48.07
2018-07-27T01:27:03.642Z,48.96
2018-07-27T01:29:08.876Z,48.65
2018-07-27T01:31:13.535Z,49.23
2018-07-27T01:33:18.279Z,49.05
2018-07-27T01:35:23.048Z,49.72
2018-07-27T01:37:27.713Z,49.61
2018-07-27T01:39:32.357Z,49.34
2018-07-27T01:41:37.044Z,48.75
2018-07-27T01:43:41.715Z,49.35
2018-07-27T01:45:46.410Z,47.93
2018-07-27T01:47:51.116Z,47.55
2018-07-27T01:49:55.477Z,46.73
2018-07-27T01:52:00.288Z,47.39
2018-07-27T01:54:05.033Z,46.94
2018-07-27T01:56:09.693Z,48.36
2018-07-27T01:58:14.483Z,49.84
2018-07-27T02:00:19.293Z,48.04
2018-07-27T02:02:24.057Z,49.48
2018-07-27T02:04:28.774Z,48.96
2018-07-27T02:06:33.542Z,49.35
2018-07-27T02:08:38.222Z,49.13
2018-07-27T02:10:43.931Z,48.44
2018-07-27T02:12:48.868Z,47.99
2018-07-27T02:14:53.566Z,47.93
2018-07-27T02:16:58.294Z,48.19
2018-07-27T02:19:03.165Z,48.60
2018-07-27T02:21:08.691Z,48.15
2018-07-27T02:23:13.382Z,49.08
2018-07-27T02:25:18.216Z,48.63
2018-07-27T02:27:23.047Z,49.44
2018-07-27T02:29:27.701Z,48.49
2018-07-27T02:31:32.576Z,49.25
2018-07-27T02:33:37.588Z,47.90
2018-07-27T02:35:42.543Z,48.72
2018-07-27T02:37:47.271Z,48.45
2018-07-27T02:39:51.970Z,48.65
2018-07-27T02:41:56.840Z,48.01
2018-07-27T02:44:01.507Z,47.93
2018-07-27T02:46:06.219Z,48.19
2018-07-27T02:48:10.933Z,48.02
2018-07-27T02:50:15.681Z,48.54
2018-07-27T02:52:20.450Z,49.89
2018-07-27T02:54:25.130Z,49.18
2018-07-27T02:56:29.873Z,48.82
2018-07-27T02:58:34.572Z,48.89
2018-07-27T03:00:39.348Z,49.00
2018-07-27T03:02:44.098Z,48.61
2018-07-27T03:04:49.183Z,48.61
2018-07-27T03:06:53.844Z,49.11
2018-07-27T03:08:58.565Z,49.37
2018-07-27T03:11:03.272Z,49.83
2018-07-27T03:13:07.987Z,50.36
2018-07-27T03:15:12.329Z,49.81
2018-07-27T03:17:17.068Z,48.60
2018-07-27T03:19:21.771Z,49.36
2018-07-27T03:21:26.486Z,48.41
2018-07-27T03:23:31.221Z,49.87
2018-07-27T03:25:48.763Z,49.80
2018-07-27T03:27:53.513Z,50.00
2018-07-27T03:29:58.293Z,50.09
2018-07-27T03:32:03.059Z,49.56
2018-07-27T03:34:07.881Z,50.21
2018-07-27T03:36:12.163Z,49.35
2018-07-27T03:38:16.880Z,49.15
2018-07-27T03:40:21.544Z,49.24
2018-07-27T03:42:26.272Z,49.87
2018-07-27T03:44:31.024Z,49.20
2018-07-27T03:46:35.830Z,49.37
2018-07-27T03:48:40.607Z,50.73
2018-07-27T03:50:45.374Z,50.51
2018-07-27T03:52:50.205Z,50.55
2018-07-27T03:54:54.926Z,49.71
2018-07-27T03:56:59.826Z,49.78
2018-07-27T03:59:04.586Z,50.51
2018-07-27T04:01:09.398Z,51.68
2018-07-27T04:03:14.122Z,49.30
2018-07-27T04:05:19.317Z,50.46
2018-07-27T04:07:24.129Z,50.70
2018-07-27T04:09:28.762Z,50.09
2018-07-27T04:11:33.459Z,50.86
2018-07-27T04:13:38.212Z,50.77
2018-07-27T04:15:42.949Z,50.04
2018-07-27T04:18:01.970Z,49.30
2018-07-27T04:20:06.989Z,49.86
2018-07-27T04:22:11.906Z,50.11
2018-07-27T04:24:16.568Z,51.09
2018-07-27T04:26:21.378Z,51.08
2018-07-27T04:28:26.211Z,49.92
2018-07-27T04:30:31.082Z,49.19
2018-07-27T04:32:35.803Z,50.46
2018-07-27T04:34:40.668Z,50.17
2018-07-27T04:36:45.446Z,50.50
2018-07-27T04:38:50.212Z,50.19
2018-07-27T04:40:54.967Z,52.16
2018-07-27T04:42:59.720Z,52.70
2018-07-27T04:45:04.441Z,52.08
2018-07-27T04:47:09.209Z,50.81
2018-07-27T04:49:14.009Z,50.23
2018-07-27T04:51:18.756Z,49.72
2018-07-27T04:53:23.450Z,50.94
2018-07-27T04:55:28.183Z,51.78
2018-07-27T04:57:33.067Z,50.98
2018-07-27T04:59:37.949Z,51.81
2018-07-27T05:01:42.826Z,51.00
2018-07-27T05:03:47.455Z,51.70
2018-07-27T05:05:52.431Z,51.02
2018-07-27T05:07:57.189Z,50.62
2018-07-27T05:10:05.908Z,50.31
2018-07-27T05:12:10.680Z,50.78
2018-07-27T05:14:15.457Z,50.49
2018-07-27T05:16:20.238Z,50.64
2018-07-27T05:18:25.091Z,50.12
2018-07-27T05:20:29.884Z,49.66
2018-07-27T05:22:34.637Z,51.14
2018-07-27T05:24:39.549Z,49.00
2018-07-27T05:26:44.288Z,48.21
2018-07-27T05:28:48.937Z,49.06
2018-07-27T05:30:53.848Z,50.75
2018-07-27T05:32:58.795Z,49.33
2018-07-27T05:35:03.671Z,48.40
2018-07-27T05:37:09.307Z,48.27
2018-07-27T05:39:14.039Z,48.48
2018-07-27T05:41:18.876Z,48.92
2018-07-27T05:43:23.737Z,49.67
2018-07-27T05:45:28.441Z,48.55
2018-07-27T05:47:33.179Z,49.02
2018-07-27T05:49:38.761Z,50.30
2018-07-27T05:51:43.650Z,49.14
2018-07-27T05:53:48.429Z,49.50
2018-07-27T05:55:53.252Z,48.96
2018-07-27T05:57:58.832Z,48.40
2018-07-27T06:00:03.827Z,48.20
2018-07-27T06:02:10.439Z,49.02
2018-07-27T06:04:14.726Z,49.23
2018-07-27T06:06:19.675Z,49.01
2018-07-27T06:08:24.360Z,48.95
2018-07-27T06:10:29.223Z,48.41
2018-07-27T06:12:34.090Z,48.80
2018-07-27T06:14:39.048Z,48.91
2018-07-27T06:16:44.232Z,48.03
2018-07-27T06:18:49.086Z,48.43
2018-07-27T06:20:54.116Z,49.00
2018-07-27T06:22:59.040Z,48.34
2018-07-27T06:25:04.079Z,48.57
2018-07-27T06:27:11.285Z,48.33
2018-07-27T06:29:16.692Z,47.90
2018-07-27T06:31:21.932Z,48.05
2018-07-27T06:33:26.843Z,48.02
2018-07-27T06:35:31.673Z,47.52
2018-07-27T06:37:36.723Z,47.41
2018-07-27T06:39:42.826Z,47.42
2018-07-27T06:41:47.646Z,46.97
2018-07-27T06:43:52.040Z,46.97
2018-07-27T06:45:57.121Z,47.45
2018-07-27T06:48:01.893Z,47.13
2018-07-27T06:50:09.627Z,48.45
2018-07-27T06:52:14.637Z,48.17
2018-07-27T06:54:19.666Z,47.81
2018-07-27T06:56:24.436Z,47.31
2018-07-27T07:01:06.060Z,46.03
2018-07-27T07:03:10.856Z,46.09
2018-07-27T07:05:15.681Z,45.92
2018-07-27T07:07:20.529Z,46.98
2018-07-27T07:09:25.258Z,46.19
2018-07-27T07:11:30.061Z,46.19
2018-07-27T07:13:34.880Z,46.97
2018-07-27T07:15:39.604Z,46.10
2018-07-27T07:17:44.367Z,45.64
2018-07-27T07:19:49.471Z,45.60
2018-07-27T07:21:54.262Z,45.22
2018-07-27T07:23:59.173Z,44.90
2018-07-27T07:26:04.423Z,45.21
2018-07-27T07:28:08.740Z,44.81
2018-07-27T07:30:13.532Z,44.38
2018-07-27T07:32:18.372Z,45.19
2018-07-27T07:34:23.153Z,43.93
2018-07-27T07:36:27.925Z,45.63
2018-07-27T07:38:32.973Z,44.39
2018-07-27T07:40:37.777Z,43.05
2018-07-27T07:42:42.609Z,44.61
2018-07-27T07:44:47.465Z,43.50
2018-07-27T07:46:52.158Z,42.13
2018-07-27T07:49:00.918Z,43.55
2018-07-27T07:51:05.757Z,41.81
2018-07-27T07:53:10.464Z,41.82
2018-07-27T07:55:15.266Z,41.93
2018-07-27T07:57:20.236Z,42.36
2018-07-27T07:59:25.310Z,41.31
2018-07-27T08:01:31.270Z,41.06
2018-07-27T08:03:36.369Z,41.12
2018-07-27T08:05:41.337Z,40.13
2018-07-27T08:07:46.533Z,40.33
2018-07-27T08:09:51.414Z,39.38
2018-07-27T08:11:56.187Z,39.92
2018-07-27T08:14:00.900Z,39.87
2018-07-27T08:16:05.877Z,38.86
2018-07-27T08:18:10.649Z,39.15
2018-07-27T08:20:15.376Z,38.89
2018-07-27T08:22:20.132Z,38.42
2018-07-27T08:24:24.940Z,37.86
2018-07-27T08:26:49.148Z,38.92
2018-07-27T08:28:53.945Z,39.04
2018-07-27T08:30:58.641Z,39.37
2018-07-27T08:33:03.529Z,38.98
2018-07-27T08:35:08.378Z,39.24
2018-07-27T08:37:13.147Z,38.12
2018-07-27T08:39:19.384Z,36.77
2018-07-27T08:41:24.233Z,39.03
2018-07-27T08:43:28.944Z,37.60
2018-07-27T08:45:33.972Z,36.85
2018-07-27T08:47:38.868Z,35.51
2018-07-27T08:49:43.621Z,36.20
2018-07-27T08:51:48.523Z,36.01
2018-07-27T08:53:53.545Z,34.36
2018-07-27T08:55:58.338Z,34.43
2018-07-27T08:58:03.115Z,33.73
2018-07-27T09:00:07.928Z,33.24
2018-07-27T09:02:12.617Z,33.11
2018-07-27T09:04:17.627Z,32.12
2018-07-27T09:06:22.631Z,31.51
2018-07-27T09:08:27.598Z,32.05
2018-07-27T09:10:32.601Z,31.15
2018-07-27T09:12:37.805Z,31.97
2018-07-27T09:14:43.561Z,32.34
2018-07-27T09:16:48.711Z,31.02
2018-07-27T09:18:54.009Z,31.86
2018-07-27T09:20:58.809Z,30.49
2018-07-27T09:23:03.585Z,30.35
2018-07-27T09:25:08.643Z,31.15
2018-07-27T09:27:13.129Z,31.24
2018-07-27T09:29:17.824Z,31.87
2018-07-27T09:31:22.913Z,31.41
2018-07-27T09:33:27.728Z,30.97
2018-07-27T09:35:32.527Z,31.58
2018-07-27T09:37:37.261Z,30.29
2018-07-27T09:39:42.069Z,30.46
2018-07-27T09:41:46.882Z,29.19
2018-07-27T09:43:51.617Z,29.37
2018-07-27T09:45:56.407Z,30.66
2018-07-27T09:48:01.192Z,29.72
2018-07-27T09:50:06.170Z,30.72
2018-07-27T09:52:10.938Z,30.78
2018-07-27T09:54:15.730Z,30.67
2018-07-27T09:56:20.683Z,30.93
2018-07-27T09:58:25.460Z,30.53
2018-07-27T10:00:35.534Z,30.23
2018-07-27T10:02:40.281Z,28.53
2018-07-27T10:04:45.026Z,28.63
2018-07-27T10:06:49.810Z,28.59
2018-07-27T10:10:49.850Z,27.88
2018-07-27T10:12:54.657Z,27.87
2018-07-27T10:14:59.155Z,28.35
2018-07-27T10:17:04.057Z,27.83
2018-07-27T10:19:08.788Z,26.64
2018-07-27T10:21:13.749Z,28.67
2018-07-27T10:23:18.632Z,26.79
2018-07-27T10:25:23.453Z,26.64
2018-07-27T10:27:28.637Z,27.20
2018-07-27T10:29:33.853Z,26.86
2018-07-27T10:31:42.619Z,27.59
2018-07-27T10:33:47.555Z,27.07
2018-07-27T10:35:52.344Z,27.38
2018-07-27T10:37:57.106Z,28.04
2018-07-27T10:40:01.882Z,27.67
2018-07-27T10:42:09.340Z,27.30
2018-07-27T10:44:14.031Z,27.11
2018-07-27T10:46:18.876Z,27.57
2018-07-27T10:48:23.671Z,26.78
2018-07-27T10:50:28.144Z,24.40
2018-07-27T10:52:32.937Z,26.25
2018-07-27T10:54:37.725Z,25.72
2018-07-27T10:56:42.339Z,26.56
2018-07-27T10:58:47.066Z,24.79
2018-07-27T11:00:51.853Z,24.33
2018-07-27T11:02:56.601Z,24.97
2018-07-27T11:05:01.330Z,24.57
2018-07-27T11:07:06.315Z,25.04
2018-07-27T11:09:11.422Z,25.29
2018-07-27T11:11:17.243Z,25.97
2018-07-27T11:13:22.078Z,26.76
2018-07-27T11:15:26.951Z,24.99
2018-07-27T11:17:31.909Z,24.50
2018-07-27T11:19:36.717Z,24.21
2018-07-27T11:21:41.544Z,24.10
2018-07-27T11:23:46.713Z,23.12
2018-07-27T11:25:51.977Z,24.35
2018-07-27T11:27:56.721Z,24.09
2018-07-27T11:30:02.516Z,24.17
2018-07-27T11:32:07.732Z,24.42
2018-07-27T11:34:12.800Z,25.91
2018-07-27T11:36:17.749Z,23.68
2018-07-27T11:38:22.625Z,23.52
2018-07-27T11:40:27.417Z,22.15
2018-07-27T11:42:32.296Z,23.31
2018-07-27T11:44:37.201Z,22.71
2018-07-27T11:46:42.107Z,22.94
2018-07-27T11:48:47.037Z,23.86
2018-07-27T11:50:52.280Z,23.71
2018-07-27T11:52:57.087Z,23.59
2018-07-27T11:55:02.275Z,23.55
2018-07-27T11:57:07.597Z,23.52
2018-07-27T11:59:12.322Z,24.33
2018-07-27T12:01:17.314Z,24.07
2018-07-27T12:03:22.152Z,24.02
2018-07-27T12:05:26.820Z,23.95
2018-07-27T12:07:31.498Z,24.12
2018-07-27T12:09:35.983Z,23.63
2018-07-27T12:11:41.029Z,23.36
2018-07-27T12:13:45.887Z,22.22
2018-07-27T12:15:50.804Z,22.41
2018-07-27T12:17:55.587Z,24.17
2018-07-27T12:20:00.580Z,22.77
2018-07-27T12:22:05.605Z,23.57
2018-07-27T12:24:12.869Z,23.42
2018-07-27T12:26:17.898Z,22.90
2018-07-27T12:28:22.228Z,23.08
2018-07-27T12:30:27.268Z,23.54
2018-07-27T12:32:32.119Z,23.28
2018-07-27T12:34:37.316Z,22.37
2018-07-27T12:36:42.124Z,24.22
2018-07-27T12:38:47.469Z,22.65
2018-07-27T12:40:52.251Z,22.95
2018-07-27T12:42:57.092Z,21.72
2018-07-27T12:45:01.889Z,21.16
2018-07-27T12:47:06.979Z,21.59
2018-07-27T12:49:11.897Z,22.03
2018-07-27T12:51:16.715Z,21.18
2018-07-27T12:53:21.487Z,20.86
2018-07-27T12:55:26.645Z,21.69
2018-07-27T12:57:31.428Z,22.50
2018-07-27T12:59:36.498Z,21.31
2018-07-27T13:01:41.252Z,20.97
2018-07-27T13:03:46.099Z,21.18
2018-07-27T13:05:50.905Z,21.36
2018-07-27T13:07:55.746Z,21.63
2018-07-27T13:12:16.608Z,20.87
2018-07-27T13:14:21.320Z,21.26
2018-07-27T13:16:25.994Z,20.06
2018-07-27T13:18:30.821Z,20.82
2018-07-27T13:20:51.829Z,21.62
2018-07-27T13:22:56.605Z,21.65
2018-07-27T13:25:01.420Z,22.09
2018-07-27T13:27:06.178Z,22.69
2018-07-27T13:29:10.896Z,21.08
2018-07-27T13:31:15.720Z,20.30
2018-07-27T13:33:20.411Z,20.50
2018-07-27T13:35:25.114Z,21.32
2018-07-27T13:39:36.542Z,20.05
2018-07-27T13:41:41.406Z,20.02
2018-07-27T13:43:46.392Z,20.03
2018-07-27T13:45:51.247Z,20.14
2018-07-27T13:47:55.973Z,20.04
2018-07-27T13:50:00.894Z,20.45
2018-07-27T13:52:05.648Z,20.10
2018-07-27T13:54:10.332Z,21.03
2018-07-27T13:56:15.116Z,20.34
2018-07-27T13:58:19.920Z,19.74
2018-07-27T14:00:24.643Z,20.18
2018-07-27T14:02:29.554Z,21.54
2018-07-27T14:04:34.320Z,21.09
2018-07-27T14:06:39.062Z,20.17
2018-07-27T14:08:44.625Z,19.81
2018-07-27T14:10:49.354Z,20.03
2018-07-27T14:12:54.228Z,21.81
2018-07-27T14:14:59.091Z,22.20
2018-07-27T14:17:03.871Z,20.15
2018-07-27T14:19:08.707Z,21.12
2018-07-27T14:21:13.454Z,20.22
2018-07-27T14:23:18.336Z,21.15
2018-07-27T14:25:23.136Z,21.17
2018-07-27T14:27:27.927Z,21.29
2018-07-27T14:29:32.925Z,21.10
2018-07-27T14:31:37.905Z,20.00
2018-07-27T14:33:42.815Z,20.21
2018-07-27T14:35:48.235Z,19.77
2018-07-27T14:37:53.155Z,21.12
2018-07-27T14:39:58.017Z,19.66
2018-07-27T14:42:02.888Z,20.41
2018-07-27T14:44:07.790Z,19.40
2018-07-27T14:46:12.948Z,19.66
2018-07-27T14:48:18.016Z,19.65
2018-07-27T14:50:23.271Z,19.88
2018-07-27T14:52:28.762Z,20.82
2018-07-27T14:54:34.594Z,20.00
2018-07-27T14:56:40.498Z,19.60
2018-07-27T14:58:45.357Z,18.56
2018-07-27T15:00:51.120Z,18.66
2018-07-27T15:02:55.882Z,18.33
2018-07-27T15:05:00.916Z,18.30
2018-07-27T15:07:06.116Z,18.35
2018-07-27T15:09:14.715Z,19.25
2018-07-27T15:11:19.895Z,18.98
2018-07-27T15:13:25.039Z,19.15
2018-07-27T15:15:30.014Z,19.81
2018-07-27T15:17:35.340Z,19.30
2018-07-27T15:19:40.553Z,19.41
2018-07-27T15:21:45.487Z,20.88
2018-07-27T15:23:50.227Z,19.71
2018-07-27T15:25:55.221Z,19.39
2018-07-27T15:28:00.142Z,18.97
2018-07-27T15:30:05.487Z,19.60
2018-07-27T15:32:10.516Z,19.55
2018-07-27T15:34:15.568Z,19.59
2018-07-27T15:36:20.342Z,18.85
2018-07-27T15:38:25.495Z,19.07
2018-07-27T15:40:30.240Z,19.23
2018-07-27T15:42:35.179Z,19.70
2018-07-27T15:44:39.987Z,20.10
2018-07-27T15:46:44.779Z,20.01
2018-07-27T15:48:50.529Z,20.90
2018-07-27T15:50:55.365Z,20.46
2018-07-27T15:53:01.090Z,22.18
2018-07-27T15:55:06.163Z,20.61
2018-07-27T15:57:10.995Z,20.44
2018-07-27T15:59:15.746Z,20.52
2018-07-27T16:01:20.625Z,20.13
2018-07-27T16:03:25.475Z,20.10
2018-07-27T16:05:30.367Z,20.88
2018-07-27T16:07:35.400Z,19.90
2018-07-27T16:09:40.332Z,18.55
2018-07-27T16:11:45.110Z,18.25
2018-07-27T16:13:50.371Z,18.57
2018-07-27T16:15:55.401Z,20.84
2018-07-27T16:18:00.397Z,22.69
2018-07-27T16:20:05.773Z,20.19
2018-07-27T16:22:10.695Z,18.29
2018-07-27T16:24:15.616Z,18.37
2018-07-27T16:26:20.443Z,22.17
2018-07-27T16:28:25.140Z,19.51
2018-07-27T16:30:29.892Z,20.57
2018-07-27T16:32:34.976Z,20.14
2018-07-27T16:34:39.805Z,18.60
2018-07-27T16:36:44.699Z,17.77
2018-07-27T16:38:49.424Z,22.57
2018-07-27T16:40:54.376Z,23.59
2018-07-27T16:42:59.225Z,19.46
2018-07-27T16:45:04.306Z,19.19
2018-07-27T16:47:11.216Z,18.45
2018-07-27T16:49:19.374Z,19.53
2018-07-27T16:51:25.348Z,20.42
2018-07-27T16:53:30.344Z,18.39
2018-07-27T16:55:35.304Z,18.95
2018-07-27T16:57:40.717Z,18.32
2018-07-27T16:59:45.926Z,19.44
2018-07-27T17:01:50.948Z,17.44
2018-07-27T17:03:55.867Z,20.06
2018-07-27T17:06:01.071Z,17.12
2018-07-27T17:08:06.361Z,18.63
2018-07-27T17:10:11.252Z,18.25
2018-07-27T17:12:16.140Z,18.98
2018-07-27T17:14:20.964Z,19.94
2018-07-27T17:16:25.752Z,19.39
2018-07-27T17:18:30.539Z,20.07
2018-07-27T17:20:35.296Z,20.33
2018-07-27T17:22:40.180Z,20.01
2018-07-27T17:24:44.939Z,16.76
2018-07-27T17:26:49.781Z,18.34
2018-07-27T17:28:54.593Z,19.06
2018-07-27T17:30:59.507Z,19.99
2018-07-27T17:33:04.593Z,20.51
2018-07-27T17:35:09.632Z,18.30
2018-07-27T17:37:14.405Z,19.63
2018-07-27T17:39:19.449Z,20.68
2018-07-27T17:41:24.896Z,20.16
2018-07-27T17:43:29.919Z,20.79
2018-07-27T17:45:34.757Z,24.74
2018-07-27T17:47:39.851Z,27.08
2018-07-27T17:49:44.680Z,24.59
2018-07-27T17:51:49.723Z,22.21
2018-07-27T17:53:54.758Z,21.64
2018-07-27T17:56:00.517Z,18.87
2018-07-27T17:58:05.708Z,23.26
2018-07-27T18:00:10.756Z,23.32
2018-07-27T18:02:15.812Z,24.61
2018-07-27T18:04:20.804Z,24.63
2018-07-27T18:06:25.783Z,23.74
2018-07-27T18:08:31.008Z,22.20
2018-07-27T18:10:35.840Z,24.67
2018-07-27T18:12:41.248Z,24.67
2018-07-27T18:14:47.964Z,24.56
2018-07-27T18:16:52.884Z,23.62
2018-07-27T18:18:57.838Z,20.66
2018-07-27T18:21:02.782Z,23.85
2018-07-27T18:23:08.108Z,26.17
2018-07-27T18:25:16.285Z,26.06
2018-07-27T18:27:21.249Z,22.99
2018-07-27T18:29:25.967Z,24.63
2018-07-27T18:31:30.954Z,24.23
2018-07-27T18:33:36.015Z,24.71
2018-07-27T18:35:41.007Z,23.70
2018-07-27T18:37:45.728Z,24.49
2018-07-27T18:39:50.682Z,24.28
2018-07-27T18:41:55.505Z,24.54
2018-07-27T18:44:00.249Z,23.87
2018-07-27T18:46:05.441Z,25.18
2018-07-27T18:48:10.406Z,26.12
2018-07-27T18:50:15.286Z,28.28
2018-07-27T18:52:20.126Z,26.06
2018-07-27T18:54:25.466Z,26.54
2018-07-27T18:56:30.375Z,27.71
2018-07-27T18:58:35.166Z,26.64
2018-07-27T19:00:39.959Z,26.54
2018-07-27T19:02:44.937Z,27.05
2018-07-27T19:04:49.953Z,27.60
2018-07-27T19:06:55.053Z,27.50
2018-07-27T19:08:59.892Z,27.51
2018-07-27T19:11:05.124Z,27.72
2018-07-27T19:13:10.560Z,28.15
2018-07-27T19:15:15.620Z,28.83
2018-07-27T19:17:21.109Z,29.60
2018-07-27T19:19:25.955Z,28.47
2018-07-27T19:21:30.792Z,28.64
2018-07-27T19:23:35.778Z,29.34
2018-07-27T19:25:42.085Z,28.80
2018-07-27T19:27:47.019Z,28.33
2018-07-27T19:29:52.339Z,28.31
2018-07-27T19:31:57.536Z,29.41
2018-07-27T19:34:02.621Z,29.45
2018-07-27T19:36:07.766Z,30.06
2018-07-27T19:38:12.794Z,29.94
2018-07-27T19:40:17.846Z,29.93
2018-07-27T19:42:22.726Z,30.25
2018-07-27T19:44:27.999Z,31.66
2018-07-27T19:46:32.937Z,30.39
2018-07-27T19:48:38.289Z,30.95
2018-07-27T19:50:43.118Z,30.34
2018-07-27T19:52:48.181Z,32.32
2018-07-27T19:54:53.294Z,31.63
2018-07-27T19:56:58.503Z,32.53
2018-07-27T19:59:03.516Z,32.63
2018-07-27T20:01:08.944Z,33.61
2018-07-27T20:03:14.491Z,34.78
2018-07-27T20:05:19.349Z,34.13
2018-07-27T20:07:24.328Z,33.62
2018-07-27T20:09:29.712Z,33.54
2018-07-27T20:11:34.779Z,33.12
2018-07-27T20:13:39.991Z,32.43
2018-07-27T20:15:44.950Z,33.92
2018-07-27T20:17:49.923Z,33.44
2018-07-27T20:19:54.704Z,34.83
2018-07-27T20:21:59.609Z,33.77
2018-07-27T20:24:04.586Z,34.59
2018-07-27T20:26:09.293Z,33.67
2018-07-27T20:28:14.317Z,34.19
2018-07-27T20:30:19.587Z,33.92
2018-07-27T20:32:25.840Z,34.48
2018-07-27T20:34:30.953Z,35.31
2018-07-27T20:36:36.811Z,35.43
2018-07-27T20:38:41.722Z,36.54
2018-07-27T20:40:46.991Z,35.01
2018-07-27T20:42:52.120Z,35.06
2018-07-27T20:44:57.641Z,35.60
2018-07-27T20:47:02.616Z,34.42
2018-07-27T20:49:08.284Z,35.23
2018-07-27T20:51:13.471Z,36.47
2018-07-27T20:53:18.483Z,36.92
2018-07-27T20:55:23.596Z,35.81
2018-07-27T20:57:28.903Z,35.50
2018-07-27T20:59:37.068Z,36.90
2018-07-27T21:01:42.257Z,35.91
2018-07-27T21:03:47.349Z,35.61
2018-07-27T21:05:53.925Z,38.07
2018-07-27T21:07:59.995Z,36.74
2018-07-27T21:10:07.396Z,35.50
2018-07-27T21:12:13.683Z,36.92
2018-07-27T21:14:18.948Z,36.31
2018-07-27T21:16:25.119Z,37.21
2018-07-27T21:18:30.425Z,37.41
2018-07-27T21:20:35.697Z,35.93
2018-07-27T21:22:42.893Z,37.31
2018-07-27T21:24:48.806Z,37.27
2018-07-27T21:26:54.497Z,36.55
2018-07-27T21:28:59.599Z,36.32
2018-07-27T21:31:04.872Z,37.20
2018-07-27T21:33:09.847Z,36.90
2018-07-27T21:35:15.075Z,37.43
2018-07-27T21:37:20.936Z,36.74
2018-07-27T21:39:26.089Z,37.94
2018-07-27T21:41:31.249Z,36.81
2018-07-27T21:43:36.331Z,36.74
2018-07-27T21:45:41.478Z,37.45
2018-07-27T21:47:46.575Z,37.48
2018-07-27T21:49:51.667Z,36.97
2018-07-27T21:51:56.745Z,37.76
2018-07-27T21:54:02.085Z,38.61
2018-07-27T21:56:07.418Z,39.10
2018-07-27T21:58:13.322Z,38.72
2018-07-27T22:00:22.670Z,38.05
2018-07-27T22:02:28.282Z,37.42
2018-07-27T22:04:33.397Z,36.57
2018-07-27T22:06:39.600Z,37.45
2018-07-27T22:08:44.733Z,37.13
2018-07-27T22:10:49.927Z,36.70
2018-07-27T22:12:55.499Z,36.83
2018-07-27T22:15:00.544Z,37.57
2018-07-27T22:17:06.779Z,37.85
2018-07-27T22:19:11.935Z,36.84
2018-07-27T22:21:17.251Z,38.30
2018-07-27T22:23:22.693Z,37.11
2018-07-27T22:25:28.635Z,37.12
2018-07-27T22:27:34.312Z,36.77
2018-07-27T22:29:39.134Z,37.40
2018-07-27T22:31:51.816Z,38.40
2018-07-27T22:33:57.442Z,38.12
2018-07-27T22:36:03.874Z,38.16
2018-07-27T22:38:09.330Z,37.40
2018-07-27T22:40:15.428Z,38.52
2018-07-27T22:42:21.463Z,38.53
2018-07-27T22:44:30.071Z,38.91
2018-07-27T22:46:35.303Z,38.65
2018-07-27T22:48:59.651Z,38.46
2018-07-27T22:51:04.444Z,38.63
2018-07-27T22:53:09.869Z,38.94
2018-07-27T22:55:15.141Z,38.50
2018-07-27T22:57:20.885Z,39.74
2018-07-27T22:59:25.856Z,40.55
2018-07-27T23:01:30.634Z,40.39
2018-07-27T23:03:36.547Z,41.21
2018-07-27T23:05:41.565Z,39.67
2018-07-27T23:07:46.479Z,40.17
2018-07-27T23:09:51.472Z,39.88
2018-07-27T23:11:56.376Z,39.55
2018-07-27T23:14:01.354Z,39.47
2018-07-27T23:16:06.255Z,39.60
2018-07-27T23:18:11.140Z,39.82
2018-07-27T23:20:15.999Z,40.22
2018-07-27T23:22:20.874Z,40.99
2018-07-27T23:24:25.772Z,39.85
2018-07-27T23:26:31.181Z,40.95
2018-07-27T23:28:36.191Z,40.97
2018-07-27T23:30:41.090Z,40.52
2018-07-27T23:32:46.087Z,40.90
2018-07-27T23:34:51.044Z,41.50
2018-07-27T23:36:55.981Z,40.70
2018-07-27T23:39:00.965Z,40.93
2018-07-27T23:41:05.960Z,40.65
2018-07-27T23:43:10.950Z,41.78
2018-07-27T23:45:15.825Z,41.88
2018-07-27T23:47:20.652Z,42.53
2018-07-27T23:49:25.593Z,42.25
2018-07-27T23:51:30.118Z,42.21
2018-07-27T23:53:35.132Z,42.10
2018-07-27T23:55:40.106Z,42.16
2018-07-27T23:57:45.766Z,42.29
2018-07-27T23:59:50.588Z,42.08
